Time;durP1;ratioP1;P1;durP2;ratioP2;P2;SDS_P1;SDS_P2;PMS_P1;PMS_P2;Temp;Humidity;BMP_temperature;BMP_pressure;BME280_temperature;BME280_humidity;BME280_pressure;Samples;Min_cycle;Max_cycle;Signal;HPM_P1;HPM_P2
2021/06/25 00:01:15;;;;;;;4.93;1.70;;;17.20;96.60;;;;;;5115040;28;20538;-70
2021/06/25 00:03:42;;;;;;;3.10;1.90;;;17.20;96.30;;;;;;5114421;28;20521;-69
2021/06/25 00:06:09;;;;;;;2.37;1.70;;;17.20;96.70;;;;;;5114819;28;20850;-70
2021/06/25 00:08:39;;;;;;;4.87;2.03;;;17.20;96.70;;;;;;5114517;28;20568;-70
2021/06/25 00:11:08;;;;;;;7.00;1.90;;;17.10;96.50;;;;;;5114616;28;20470;-70
2021/06/25 00:13:39;;;;;;;3.70;2.20;;;17.10;96.70;;;;;;5114705;28;20462;-70
2021/06/25 00:16:11;;;;;;;2.40;1.50;;;17.10;96.40;;;;;;5113605;28;20537;-70
2021/06/25 00:18:38;;;;;;;4.47;2.40;;;17.10;96.70;;;;;;5114635;28;20604;-70
2021/06/25 00:21:09;;;;;;;3.60;2.47;;;17.00;97.00;;;;;;5114675;28;20469;-71
2021/06/25 00:23:36;;;;;;;6.93;2.27;;;16.90;97.70;;;;;;5114710;28;20470;-69
2021/06/25 00:26:03;;;;;;;3.20;2.00;;;16.90;98.10;;;;;;5114542;28;20808;-70
2021/06/25 00:28:30;;;;;;;1.90;1.07;;;16.90;98.10;;;;;;5113791;28;20560;-70
2021/06/25 00:30:58;;;;;;;2.00;1.07;;;16.90;97.60;;;;;;5114271;28;20537;-70
2021/06/25 00:33:25;;;;;;;1.97;1.00;;;16.90;97.40;;;;;;5114554;28;20433;-70
2021/06/25 00:35:52;;;;;;;1.87;1.17;;;16.80;97.50;;;;;;5114255;28;20521;-71
2021/06/25 00:38:24;;;;;;;2.73;1.10;;;16.80;97.20;;;;;;5114375;28;20522;-69
2021/06/25 00:40:52;;;;;;;2.13;1.30;;;16.70;97.30;;;;;;5113946;28;20513;-70
2021/06/25 00:43:25;;;;;;;2.87;1.50;;;16.70;97.50;;;;;;5113914;28;20525;-70
2021/06/25 00:45:52;;;;;;;2.80;1.00;;;16.70;97.00;;;;;;5114160;28;20859;-70
2021/06/25 00:48:20;;;;;;;2.23;1.63;;;16.50;97.50;;;;;;5114214;28;20569;-69
2021/06/25 00:50:47;;;;;;;2.50;1.70;;;16.50;97.70;;;;;;5114158;28;20537;-69
2021/06/25 00:53:22;;;;;;;2.80;1.60;;;16.40;97.90;;;;;;5114135;28;20469;-70
2021/06/25 00:55:49;;;;;;;2.30;1.50;;;16.30;98.60;;;;;;5113972;28;20461;-70
2021/06/25 00:58:19;;;;;;;4.33;1.23;;;16.30;99.00;;;;;;5113395;28;20481;-70
2021/06/25 01:00:52;;;;;;;2.10;1.23;;;16.30;99.40;;;;;;5114219;28;20521;-69
2021/06/25 01:03:20;;;;;;;3.27;2.33;;;16.30;99.30;;;;;;5113816;28;20521;-70
2021/06/25 01:05:52;;;;;;;2.33;1.37;;;16.30;99.10;;;;;;5113977;28;20852;-69
2021/06/25 01:08:19;;;;;;;2.60;1.50;;;16.30;99.20;;;;;;5113900;28;20647;-69
2021/06/25 01:10:55;;;;;;;6.13;1.30;;;16.30;99.50;;;;;;5113436;28;20996;-70
2021/06/25 01:13:22;;;;;;;2.67;1.57;;;16.30;99.70;;;;;;5113712;28;20529;-70
2021/06/25 01:15:49;;;;;;;2.37;1.57;;;16.40;99.90;;;;;;5113353;28;20521;-70
2021/06/25 01:18:16;;;;;;;2.50;1.50;;;16.50;99.80;;;;;;5113650;28;21003;-70
2021/06/25 01:20:44;;;;;;;5.70;1.70;;;16.50;99.40;;;;;;5113703;28;20550;-70
2021/06/25 01:23:13;;;;;;;3.63;1.60;;;16.60;99.70;;;;;;5113311;28;20529;-70
2021/06/25 01:25:43;;;;;;;2.70;1.90;;;16.60;99.90;;;;;;5113534;28;20430;-70
2021/06/25 01:28:11;;;;;;;3.00;2.23;;;16.70;99.90;;;;;;5113202;28;20510;-70
2021/06/25 01:30:46;;;;;;;2.90;2.13;;;16.70;99.70;;;;;;5113252;28;20466;-70
2021/06/25 01:33:20;;;;;;;2.70;2.20;;;16.80;99.70;;;;;;5113121;28;20453;-70
2021/06/25 01:35:47;;;;;;;2.50;1.70;;;16.80;99.50;;;;;;5113405;28;20438;-70
2021/06/25 01:38:16;;;;;;;2.50;1.60;;;16.80;99.30;;;;;;5113164;28;20533;-70
2021/06/25 01:40:45;;;;;;;2.80;1.47;;;16.80;99.40;;;;;;5112396;28;20430;-70
2021/06/25 01:43:13;;;;;;;2.77;1.50;;;16.90;99.30;;;;;;5112996;28;20493;-70
2021/06/25 01:45:41;;;;;;;2.30;1.40;;;16.80;99.30;;;;;;5112931;28;20434;-71
2021/06/25 01:48:09;;;;;;;2.07;1.23;;;16.80;99.20;;;;;;5113022;28;20517;-70
2021/06/25 01:50:44;;;;;;;2.10;1.50;;;16.90;99.10;;;;;;5112818;28;20494;-70
2021/06/25 01:53:13;;;;;;;4.40;3.00;;;16.90;98.80;;;;;;5113374;28;20529;-70
2021/06/25 01:55:44;;;;;;;6.00;2.53;;;16.90;98.80;;;;;;5113271;28;20521;-70
2021/06/25 01:58:12;;;;;;;2.53;1.47;;;16.80;98.90;;;;;;5113226;28;20978;-70
2021/06/25 02:00:40;;;;;;;3.70;1.70;;;16.70;99.20;;;;;;5112759;28;20559;-70
2021/06/25 02:03:07;;;;;;;3.10;1.60;;;16.70;99.50;;;;;;5113362;28;20517;-70
2021/06/25 02:05:34;;;;;;;3.40;1.83;;;16.70;99.30;;;;;;5112705;28;20465;-70
2021/06/25 02:08:03;;;;;;;2.47;1.60;;;16.70;98.90;;;;;;5112623;28;20482;-70
2021/06/25 02:10:30;;;;;;;2.50;1.73;;;16.60;99.10;;;;;;5113122;28;20439;-70
2021/06/25 02:12:58;;;;;;;2.30;1.50;;;16.70;99.30;;;;;;5113220;28;20467;-70
2021/06/25 02:15:25;;;;;;;2.90;1.30;;;16.70;99.40;;;;;;5113017;28;20517;-70
2021/06/25 02:17:52;;;;;;;2.43;1.63;;;16.70;99.40;;;;;;5113046;28;20545;-70
2021/06/25 02:20:20;;;;;;;3.40;1.33;;;16.70;99.50;;;;;;5113093;28;20832;-70
2021/06/25 02:22:47;;;;;;;3.70;1.70;;;16.70;99.80;;;;;;5112961;28;20531;-70
2021/06/25 02:25:15;;;;;;;2.67;1.83;;;16.70;99.70;;;;;;5112865;28;20840;-70
2021/06/25 02:27:42;;;;;;;2.60;1.47;;;16.70;99.50;;;;;;5113107;28;20434;-71
2021/06/25 02:30:15;;;;;;;2.10;1.30;;;16.80;99.00;;;;;;5112598;28;20515;-70
2021/06/25 02:32:42;;;;;;;2.30;1.40;;;16.70;98.70;;;;;;5112443;28;20448;-70
2021/06/25 02:35:10;;;;;;;2.07;0.90;;;16.60;98.90;;;;;;5112980;28;20473;-70
2021/06/25 02:37:43;;;;;;;2.27;1.53;;;16.60;99.40;;;;;;5112929;28;20446;-70
2021/06/25 02:40:12;;;;;;;2.27;1.50;;;16.60;99.10;;;;;;5112698;28;20489;-70
2021/06/25 02:42:39;;;;;;;3.30;2.47;;;16.60;99.10;;;;;;5112792;28;20484;-70
2021/06/25 02:45:08;;;;;;;1.90;1.30;;;16.60;99.00;;;;;;5112837;28;20920;-70
2021/06/25 02:47:37;;;;;;;2.30;1.43;;;16.60;99.10;;;;;;5112399;28;20522;-70
2021/06/25 02:50:07;;;;;;;2.07;1.33;;;16.50;98.50;;;;;;5112755;28;20438;-70
2021/06/25 02:52:34;;;;;;;2.20;1.10;;;16.50;98.40;;;;;;5114884;28;20624;-71
2021/06/25 02:55:01;;;;;;;3.40;1.60;;;16.40;98.30;;;;;;5116336;28;20442;-72
2021/06/25 02:57:31;;;;;;;3.10;1.60;;;16.30;98.80;;;;;;5116371;28;20430;-70
2021/06/25 02:59:58;;;;;;;3.40;1.27;;;16.20;98.80;;;;;;5116030;28;20483;-70
2021/06/25 03:02:25;;;;;;;2.17;1.40;;;16.20;99.00;;;;;;5115891;28;20470;-70
2021/06/25 03:04:59;;;;;;;3.50;1.60;;;16.20;99.10;;;;;;5115885;28;20473;-70
2021/06/25 03:07:26;;;;;;;3.67;1.93;;;16.10;99.10;;;;;;5116250;28;20520;-70
2021/06/25 03:09:53;;;;;;;2.53;1.00;;;16.10;99.60;;;;;;5116099;28;20507;-70
2021/06/25 03:12:21;;;;;;;2.73;1.37;;;16.10;99.50;;;;;;5116030;28;20525;-70
2021/06/25 03:14:48;;;;;;;2.23;1.10;;;16.10;99.70;;;;;;5116032;28;20659;-70
2021/06/25 03:17:15;;;;;;;2.67;1.10;;;16.10;99.30;;;;;;5115789;28;20522;-70
2021/06/25 03:19:42;;;;;;;2.00;1.10;;;16.10;99.00;;;;;;5115807;28;20466;-70
2021/06/25 03:22:10;;;;;;;2.10;1.27;;;16.10;99.00;;;;;;5115910;28;20466;-69
2021/06/25 03:24:40;;;;;;;3.10;1.30;;;16.10;99.30;;;;;;5115646;28;20462;-70
2021/06/25 03:27:07;;;;;;;2.63;1.10;;;16.20;99.10;;;;;;5115615;28;20521;-70
2021/06/25 03:29:34;;;;;;;1.70;1.00;;;16.20;99.30;;;;;;5115271;28;20560;-70
2021/06/25 03:32:01;;;;;;;1.80;1.00;;;16.20;99.30;;;;;;5115604;28;20480;-70
2021/06/25 03:34:33;;;;;;;3.03;1.00;;;16.20;99.30;;;;;;5115614;28;20528;-70
2021/06/25 03:37:02;;;;;;;4.43;1.10;;;16.10;99.20;;;;;;5115502;28;20505;-70
2021/06/25 03:39:30;;;;;;;3.03;1.27;;;16.10;99.00;;;;;;5115769;28;20521;-70
2021/06/25 03:41:59;;;;;;;2.00;1.20;;;16.10;98.70;;;;;;5115490;28;20517;-70
2021/06/25 03:44:26;;;;;;;2.17;1.23;;;16.10;99.20;;;;;;5115483;28;20525;-70
2021/06/25 03:46:53;;;;;;;3.03;1.10;;;16.00;99.20;;;;;;5114932;28;20466;-69
2021/06/25 03:49:25;;;;;;;1.90;1.13;;;16.00;99.20;;;;;;5115148;28;20517;-70
2021/06/25 03:51:52;;;;;;;2.37;1.33;;;15.80;99.50;;;;;;5115218;28;20434;-70
2021/06/25 03:54:19;;;;;;;2.03;0.97;;;15.90;99.30;;;;;;5115010;28;20861;-70
2021/06/25 03:56:50;;;;;;;3.60;1.20;;;15.80;99.50;;;;;;5115065;28;20484;-69
2021/06/25 03:59:17;;;;;;;1.73;1.10;;;15.90;99.70;;;;;;5115034;28;20967;-70
2021/06/25 04:01:44;;;;;;;1.70;0.90;;;15.80;99.90;;;;;;5114888;28;20841;-69
2021/06/25 04:04:13;;;;;;;2.13;0.80;;;15.90;99.80;;;;;;5114451;28;20434;-70
2021/06/25 04:06:46;;;;;;;3.10;1.23;;;15.80;99.50;;;;;;5114841;28;20526;-70
2021/06/25 04:09:15;;;;;;;1.90;1.17;;;15.70;99.70;;;;;;5114917;28;20569;-70
2021/06/25 04:11:43;;;;;;;2.50;1.00;;;15.60;99.90;;;;;;5115041;28;20438;-69
2021/06/25 04:14:11;;;;;;;2.00;1.10;;;15.70;99.90;;;;;;5114009;28;20446;-73
2021/06/25 04:16:38;;;;;;;2.50;1.20;;;15.70;99.90;;;;;;5114003;28;20517;-70
2021/06/25 04:19:05;;;;;;;1.87;1.03;;;15.80;99.80;;;;;;5105587;28;20511;-70
2021/06/25 04:21:42;;;;;;;2.10;1.10;;;15.70;99.70;;;;;;5101927;28;20463;-70
2021/06/25 04:24:09;;;;;;;1.83;1.10;;;15.80;99.90;;;;;;5093794;28;20925;-69
2021/06/25 04:26:38;;;;;;;1.60;0.90;;;15.80;99.60;;;;;;5093653;28;20518;-70
2021/06/25 04:29:12;;;;;;;2.27;1.20;;;15.90;99.60;;;;;;5093583;28;20563;-70
2021/06/25 04:31:43;;;;;;;2.73;0.90;;;15.90;99.30;;;;;;5094090;28;20459;-70
2021/06/25 04:34:15;;;;;;;2.30;1.40;;;15.90;99.40;;;;;;5100293;28;20434;-69
2021/06/25 04:36:42;;;;;;;2.33;0.90;;;15.90;99.70;;;;;;5114241;28;20438;-69
2021/06/25 04:39:12;;;;;;;1.83;0.90;;;16.00;99.70;;;;;;5111968;28;20442;-70
2021/06/25 04:41:39;;;;;;;4.27;1.10;;;16.00;99.00;;;;;;5113928;28;20431;-70
2021/06/25 04:44:07;;;;;;;2.53;1.40;;;16.10;99.30;;;;;;5104793;28;20845;-69
2021/06/25 04:46:35;;;;;;;4.97;1.83;;;16.20;99.40;;;;;;5093654;28;20931;-70
2021/06/25 04:49:03;;;;;;;2.50;1.40;;;16.30;99.40;;;;;;5094626;28;20551;-71
2021/06/25 04:51:32;;;;;;;1.90;1.17;;;16.40;99.00;;;;;;5093819;28;20431;-70
2021/06/25 04:53:59;;;;;;;3.80;1.10;;;16.50;98.90;;;;;;5100275;28;20828;-70
2021/06/25 04:56:26;;;;;;;2.80;1.30;;;16.60;98.60;;;;;;5093075;28;20446;-71
2021/06/25 04:58:53;;;;;;;3.30;1.20;;;16.80;98.70;;;;;;5097997;28;20437;-70
2021/06/25 05:01:20;;;;;;;2.17;1.07;;;16.90;97.80;;;;;;5113699;28;20454;-70
2021/06/25 05:03:47;;;;;;;1.67;0.80;;;16.90;97.30;;;;;;5105875;28;20446;-69
2021/06/25 05:06:16;;;;;;;1.90;1.10;;;17.00;97.10;;;;;;5080216;28;20520;-70
2021/06/25 05:08:43;;;;;;;2.10;1.20;;;17.00;97.50;;;;;;5089845;28;20474;-70
2021/06/25 05:11:14;;;;;;;2.30;1.23;;;17.10;97.50;;;;;;5089485;28;20532;-69
2021/06/25 05:13:41;;;;;;;3.47;1.40;;;17.30;97.30;;;;;;5090080;28;20794;-70
2021/06/25 05:16:08;;;;;;;2.87;1.03;;;17.40;96.90;;;;;;5090107;28;20765;-71
2021/06/25 05:18:35;;;;;;;3.20;2.30;;;17.40;96.70;;;;;;5090253;28;20443;-70
2021/06/25 05:21:02;;;;;;;3.90;2.23;;;17.50;96.30;;;;;;5093043;28;20495;-70
2021/06/25 05:23:31;;;;;;;2.90;1.67;;;17.50;95.30;;;;;;5075370;28;20444;-70
2021/06/25 05:25:58;;;;;;;3.63;1.57;;;17.50;95.10;;;;;;5086448;28;20913;-69
2021/06/25 05:28:26;;;;;;;2.70;1.73;;;17.40;94.80;;;;;;5090033;28;20438;-69
2021/06/25 05:30:53;;;;;;;2.17;0.90;;;17.50;95.20;;;;;;5089775;28;20527;-69
2021/06/25 05:33:22;;;;;;;2.00;0.90;;;17.60;95.50;;;;;;5089220;28;20488;-71
2021/06/25 05:35:49;;;;;;;1.90;0.90;;;17.60;95.20;;;;;;5091422;28;20439;-69
2021/06/25 05:38:17;;;;;;;2.33;1.37;;;17.60;95.10;;;;;;5092683;28;20443;-70
2021/06/25 05:40:46;;;;;;;2.10;1.20;;;17.70;95.10;;;;;;5087075;28;20439;-70
2021/06/25 05:43:13;;;;;;;2.30;1.40;;;17.80;95.60;;;;;;5090031;28;20440;-71
2021/06/25 05:45:41;;;;;;;2.43;1.63;;;18.00;95.80;;;;;;5086707;28;20431;-70
2021/06/25 05:48:09;;;;;;;2.60;1.20;;;18.00;93.70;;;;;;5089843;28;20431;-70
2021/06/25 05:50:38;;;;;;;2.33;1.40;;;18.10;94.30;;;;;;5071856;28;20488;-70
2021/06/25 05:53:07;;;;;;;4.97;1.20;;;18.20;94.10;;;;;;5082190;28;20443;-71
2021/06/25 05:55:42;;;;;;;2.00;1.30;;;18.30;94.00;;;;;;5076672;28;20436;-72
2021/06/25 05:58:13;;;;;;;4.53;1.60;;;18.30;93.10;;;;;;5071908;28;20436;-71
2021/06/25 06:00:51;;;;;;;5.30;1.40;;;18.50;94.00;;;;;;5088206;28;20748;-70
2021/06/25 06:03:18;;;;;;;3.87;1.93;;;18.60;94.70;;;;;;5088993;28;20526;-70
2021/06/25 06:05:47;;;;;;;3.07;2.00;;;18.70;93.90;;;;;;5085146;28;20843;-70
2021/06/25 06:08:18;;;;;;;2.83;1.60;;;18.90;94.50;;;;;;5071957;28;20842;-69
2021/06/25 06:10:45;;;;;;;3.23;1.80;;;19.00;94.00;;;;;;5076606;28;20511;-70
2021/06/25 06:13:13;;;;;;;2.43;1.47;;;19.10;93.60;;;;;;5071980;28;20464;-70
2021/06/25 06:15:40;;;;;;;3.73;2.30;;;19.00;91.20;;;;;;5084622;28;20482;-70
2021/06/25 06:18:08;;;;;;;4.87;2.37;;;18.90;91.40;;;;;;5072337;28;20984;-70
2021/06/25 06:20:35;;;;;;;3.13;1.80;;;18.90;92.40;;;;;;5071863;28;20476;-70
2021/06/25 06:31:41;;;;;;;3.43;2.60;;;19.00;92.50;;;;;;5086231;28;20612;-70
2021/06/25 06:34:15;;;;;;;4.57;2.97;;;19.00;93.00;;;;;;5088035;28;20435;-70
2021/06/25 06:36:44;;;;;;;4.10;2.90;;;19.00;92.90;;;;;;5079262;28;20519;-70
2021/06/25 06:39:15;;;;;;;4.30;2.50;;;19.00;92.30;;;;;;5075113;28;20436;-71
2021/06/25 06:41:42;;;;;;;3.90;2.00;;;19.00;90.80;;;;;;5088684;28;20447;-70
2021/06/25 06:44:11;;;;;;;3.70;1.87;;;19.10;90.70;;;;;;5092983;28;20961;-71
2021/06/25 06:46:40;;;;;;;3.77;2.20;;;19.20;91.50;;;;;;5091883;28;20830;-71
2021/06/25 06:49:09;;;;;;;3.20;2.10;;;19.30;91.70;;;;;;5090825;28;20854;-76
2021/06/25 06:51:39;;;;;;;2.80;2.17;;;19.60;90.30;;;;;;5087028;28;20481;-71
2021/06/25 06:54:06;;;;;;;2.83;1.90;;;19.90;90.70;;;;;;5089474;28;20443;-71
2021/06/25 06:56:33;;;;;;;4.60;2.20;;;20.20;90.50;;;;;;5093125;28;20498;-70
2021/06/25 06:59:04;;;;;;;7.80;4.97;;;20.40;89.80;;;;;;5092201;28;20904;-70
2021/06/25 07:01:32;;;;;;;3.40;3.00;;;20.70;90.10;;;;;;5089557;28;20458;-70
2021/06/25 07:04:02;;;;;;;5.10;4.30;;;20.90;86.00;;;;;;5090787;28;20465;-71
2021/06/25 07:06:29;;;;;;;6.03;3.57;;;21.10;84.00;;;;;;5088769;28;20530;-70
2021/06/25 07:08:56;;;;;;;3.83;2.30;;;21.30;82.80;;;;;;5091635;28;20470;-71
2021/06/25 07:11:28;;;;;;;6.23;5.00;;;21.40;81.50;;;;;;5090037;28;20478;-70
2021/06/25 07:13:55;;;;;;;4.90;3.00;;;21.50;81.40;;;;;;5092093;28;20474;-71
2021/06/25 07:16:26;;;;;;;5.63;2.30;;;21.70;82.20;;;;;;5089725;28;21151;-71
2021/06/25 07:18:55;;;;;;;2.90;1.87;;;21.70;81.30;;;;;;5090395;28;20957;-70
2021/06/25 07:21:24;;;;;;;4.60;1.93;;;21.80;79.80;;;;;;5091180;28;21293;-70
2021/06/25 07:23:51;;;;;;;3.07;2.00;;;21.80;79.80;;;;;;5088620;28;20513;-72
2021/06/25 07:26:20;;;;;;;2.60;1.60;;;21.90;80.00;;;;;;5090418;28;20471;-70
2021/06/25 07:28:47;;;;;;;2.77;1.57;;;22.00;81.20;;;;;;5087781;28;20466;-71
2021/06/25 07:31:25;;;;;;;2.80;1.80;;;22.00;79.80;;;;;;5086829;28;20525;-71
2021/06/25 07:33:55;;;;;;;2.70;1.20;;;22.00;76.70;;;;;;5087708;28;20890;-70
2021/06/25 07:36:23;;;;;;;3.77;1.70;;;22.20;78.30;;;;;;5092741;28;20880;-70
2021/06/25 07:38:51;;;;;;;3.53;2.10;;;22.30;78.10;;;;;;5092571;28;20859;-69
2021/06/25 07:41:18;;;;;;;2.40;1.70;;;22.50;77.90;;;;;;5093659;28;20522;-70
2021/06/25 07:43:45;;;;;;;3.10;2.10;;;22.70;76.60;;;;;;5093738;28;20466;-70
2021/06/25 07:46:12;;;;;;;2.77;1.57;;;22.90;75.00;;;;;;5097603;28;20534;-70
2021/06/25 07:48:41;;;;;;;2.60;1.63;;;23.10;75.90;;;;;;5096201;28;20474;-70
2021/06/25 07:51:10;;;;;;;3.50;1.40;;;23.30;76.30;;;;;;5093438;28;20817;-70
2021/06/25 07:53:36;;;;;;;2.77;1.67;;;23.50;76.00;;;;;;5092955;28;20933;-71
2021/06/25 07:56:04;;;;;;;3.30;1.80;;;23.60;74.80;;;;;;5093450;28;20534;-70
2021/06/25 07:58:31;;;;;;;2.40;1.73;;;23.90;73.80;;;;;;5094081;28;20439;-70
2021/06/25 08:00:57;;;;;;;4.07;2.40;;;24.00;70.90;;;;;;5089915;28;20522;-70
2021/06/25 08:03:24;;;;;;;3.77;1.97;;;24.20;70.90;;;;;;5093730;28;20872;-70
2021/06/25 08:05:53;;;;;;;2.73;1.57;;;24.30;71.00;;;;;;5082824;28;20523;-70
2021/06/25 08:08:22;;;;;;;2.80;2.10;;;24.20;67.80;;;;;;5073759;28;20444;-70
2021/06/25 08:10:49;;;;;;;2.70;1.50;;;24.10;65.80;;;;;;5073719;28;20574;-70
2021/06/25 08:13:16;;;;;;;2.60;1.40;;;24.00;67.20;;;;;;5087831;28;20466;-70
2021/06/25 08:15:48;;;;;;;3.20;1.63;;;24.00;66.50;;;;;;5094368;28;20531;-70
2021/06/25 08:18:15;;;;;;;2.30;1.50;;;24.00;68.00;;;;;;5094681;28;20440;-71
2021/06/25 08:20:42;;;;;;;2.97;1.57;;;23.90;64.30;;;;;;5094579;28;20932;-71
2021/06/25 08:23:09;;;;;;;4.20;1.30;;;23.60;63.40;;;;;;5094562;28;20439;-71
2021/06/25 08:25:38;;;;;;;2.83;1.57;;;23.40;65.00;;;;;;5094348;28;20441;-71
2021/06/25 08:28:05;;;;;;;3.17;1.73;;;23.30;66.50;;;;;;5094537;28;20518;-71
2021/06/25 08:30:32;;;;;;;3.20;2.60;;;23.20;67.00;;;;;;5093966;28;20485;-71
2021/06/25 08:32:59;;;;;;;10.70;8.27;;;23.00;64.60;;;;;;5094365;28;20437;-70
2021/06/25 08:35:27;;;;;;;5.93;2.23;;;22.90;64.70;;;;;;5094239;28;20471;-70
2021/06/25 08:37:54;;;;;;;3.90;2.03;;;22.90;65.60;;;;;;5094263;28;20518;-70
2021/06/25 08:40:22;;;;;;;3.50;2.20;;;22.90;65.20;;;;;;5093775;28;20977;-70
2021/06/25 08:42:51;;;;;;;3.20;1.93;;;22.90;66.40;;;;;;5094414;28;20515;-72
2021/06/25 08:45:18;;;;;;;6.00;4.90;;;23.00;66.10;;;;;;5093796;28;20435;-70
2021/06/25 08:47:47;;;;;;;8.73;6.80;;;23.00;66.70;;;;;;5093959;28;20525;-70
2021/06/25 08:50:16;;;;;;;5.33;3.50;;;23.10;66.30;;;;;;5093616;28;20474;-70
2021/06/25 08:52:43;;;;;;;3.63;1.80;;;23.10;64.40;;;;;;5093992;28;20523;-70
2021/06/25 08:55:11;;;;;;;2.40;1.43;;;23.20;63.50;;;;;;5093913;28;20435;-70
2021/06/25 08:57:38;;;;;;;14.57;2.40;;;23.20;63.00;;;;;;5094045;28;20518;-70
2021/06/25 09:00:09;;;;;;;3.87;1.43;;;23.10;62.70;;;;;;5093945;28;20840;-70
2021/06/25 09:02:36;;;;;;;3.50;1.77;;;23.00;61.40;;;;;;5093976;28;20845;-70
2021/06/25 09:05:05;;;;;;;3.80;2.13;;;22.90;61.00;;;;;;5093312;28;20519;-71
2021/06/25 09:07:41;;;;;;;2.90;1.70;;;22.90;62.60;;;;;;5093940;28;20542;-70
2021/06/25 09:10:10;;;;;;;2.57;1.40;;;22.90;63.10;;;;;;5093315;28;20482;-70
2021/06/25 09:12:38;;;;;;;2.70;1.70;;;22.90;61.90;;;;;;5093623;28;20443;-70
2021/06/25 09:15:11;;;;;;;2.80;1.80;;;23.00;62.70;;;;;;5093602;28;20523;-71
2021/06/25 09:17:54;;;;;;;3.27;1.87;;;23.30;65.30;;;;;;5093610;28;20526;-70
2021/06/25 09:20:31;;;;;;;2.73;1.50;;;23.50;66.20;;;;;;5093311;28;20989;-70
2021/06/25 09:22:58;;;;;;;3.73;1.70;;;23.80;63.70;;;;;;5093611;28;20855;-70
2021/06/25 09:25:25;;;;;;;4.13;1.77;;;24.00;63.90;;;;;;5093229;28;20479;-70
2021/06/25 09:27:55;;;;;;;4.03;2.20;;;24.10;62.30;;;;;;5093164;28;20526;-71
2021/06/25 09:30:24;;;;;;;5.23;3.60;;;24.20;63.10;;;;;;5093036;28;21227;-70
2021/06/25 09:32:56;;;;;;;2.33;1.57;;;24.30;60.70;;;;;;5093230;28;20538;-71
2021/06/25 09:35:26;;;;;;;2.70;1.80;;;24.30;60.60;;;;;;5093300;28;20534;-70
2021/06/25 09:37:54;;;;;;;1.90;1.10;;;24.30;61.10;;;;;;5093260;28;20481;-70
2021/06/25 09:40:22;;;;;;;3.77;1.17;;;24.40;58.90;;;;;;5093175;28;20522;-70
2021/06/25 09:43:09;;;;;;;2.13;1.20;;;24.60;60.20;;;;;;5093216;28;20526;-70
2021/06/25 09:45:48;;;;;;;3.17;1.80;;;24.90;58.00;;;;;;5093408;28;20518;-70
2021/06/25 09:48:15;;;;;;;2.37;1.80;;;25.30;59.00;;;;;;5093246;28;20443;-70
2021/06/25 09:50:45;;;;;;;2.30;1.43;;;25.40;56.80;;;;;;5093044;28;20589;-70
2021/06/25 09:53:12;;;;;;;2.00;1.20;;;25.40;56.70;;;;;;5093075;28;20476;-71
2021/06/25 09:55:50;;;;;;;2.70;1.37;;;25.10;56.10;;;;;;5092974;28;20471;-70
2021/06/25 09:58:40;;;;;;;2.30;1.50;;;24.90;56.60;;;;;;5093183;28;20485;-70
2021/06/25 10:01:23;;;;;;;2.23;1.33;;;24.60;56.10;;;;;;5093149;28;20436;-71
2021/06/25 10:03:52;;;;;;;2.00;1.20;;;24.50;57.10;;;;;;5096947;28;20788;-70
2021/06/25 10:06:20;;;;;;;3.27;1.30;;;24.40;57.50;;;;;;5097271;28;20442;-70
2021/06/25 10:08:48;;;;;;;2.70;1.60;;;24.40;57.90;;;;;;5097181;28;20471;-71
2021/06/25 10:11:16;;;;;;;3.23;1.70;;;24.50;58.80;;;;;;5096818;28;20562;-70
2021/06/25 10:13:45;;;;;;;2.27;1.33;;;24.60;58.80;;;;;;5096954;28;20476;-71
2021/06/25 10:16:13;;;;;;;3.07;1.90;;;24.60;57.30;;;;;;5096944;28;20988;-71
2021/06/25 10:18:42;;;;;;;2.60;1.40;;;24.60;56.50;;;;;;5097064;28;20518;-70
2021/06/25 10:21:11;;;;;;;2.60;1.67;;;24.70;56.60;;;;;;5096942;28;20435;-71
2021/06/25 10:23:40;;;;;;;2.10;1.23;;;24.80;56.20;;;;;;5096510;28;20438;-71
2021/06/25 10:26:09;;;;;;;6.03;1.13;;;24.90;57.20;;;;;;5096825;28;20932;-71
2021/06/25 10:28:37;;;;;;;2.50;1.37;;;25.10;56.80;;;;;;5096367;28;20436;-71
2021/06/25 10:31:05;;;;;;;2.33;1.40;;;25.20;57.30;;;;;;5096462;28;20580;-70
2021/06/25 10:33:34;;;;;;;3.67;1.40;;;25.40;57.10;;;;;;5096436;28;20441;-73
2021/06/25 10:36:03;;;;;;;2.07;1.30;;;25.40;54.80;;;;;;5096640;28;20529;-70
2021/06/25 10:38:31;;;;;;;2.57;1.70;;;25.40;54.70;;;;;;5096124;28;20441;-70
2021/06/25 10:41:00;;;;;;;4.37;1.30;;;25.40;55.30;;;;;;5096547;28;20482;-70
2021/06/25 10:43:44;;;;;;;2.00;1.30;;;25.60;54.60;;;;;;5096115;28;20512;-70
2021/06/25 10:46:35;;;;;;;2.30;1.30;;;25.70;53.70;;;;;;5096524;28;20763;-71
2021/06/25 10:49:08;;;;;;;2.03;1.40;;;25.80;53.60;;;;;;5092214;28;20487;-71
2021/06/25 10:51:36;;;;;;;2.80;1.40;;;25.90;55.20;;;;;;5096379;28;20529;-71
2021/06/25 10:54:21;;;;;;;1.93;1.00;;;26.00;54.00;;;;;;5096024;28;20480;-70
2021/06/25 10:57:21;;;;;;;7.30;1.60;;;26.10;53.20;;;;;;5095851;28;20531;-71
2021/06/25 10:59:47;;;;;;;1.93;1.20;;;26.10;54.60;;;;;;5051413;28;20471;-71
2021/06/25 11:02:18;;;;;;;2.33;1.70;;;26.20;53.50;;;;;;5096216;28;20854;-71
2021/06/25 11:04:52;;;;;;;2.57;1.77;;;26.50;52.00;;;;;;5095715;28;20946;-71
2021/06/25 11:07:39;;;;;;;2.40;1.53;;;26.70;52.30;;;;;;5096020;28;20530;-70
2021/06/25 11:10:07;;;;;;;1.90;1.00;;;26.80;52.70;;;;;;5096306;28;20433;-71
2021/06/25 11:12:37;;;;;;;2.33;1.30;;;27.10;51.80;;;;;;5095648;28;20537;-71
2021/06/25 11:18:18;;;;;;;2.50;1.30;;;27.00;49.40;;;;;;5114001;28;20437;-71
2021/06/25 11:20:53;;;;;;;6.40;1.73;;;26.90;49.40;;;;;;5114255;28;20430;-71
2021/06/25 11:23:23;;;;;;;2.70;1.90;;;27.00;50.20;;;;;;5095561;28;20430;-71
2021/06/25 11:25:52;;;;;;;2.20;1.60;;;27.10;51.80;;;;;;5094854;28;20433;-71
2021/06/25 11:28:38;;;;;;;2.10;1.30;;;27.40;51.20;;;;;;5095656;28;20431;-71
2021/06/25 11:31:08;;;;;;;2.37;1.20;;;27.60;48.80;;;;;;5095331;28;20518;-71
2021/06/25 11:33:40;;;;;;;2.70;1.50;;;27.60;49.20;;;;;;5088737;28;20534;-78
2021/06/25 11:36:51;;;;;;;2.97;1.67;;;27.50;49.20;;;;;;5097506;28;20522;-70
2021/06/25 11:39:29;;;;;;;2.77;1.30;;;27.10;47.70;;;;;;5094490;28;20460;-70
2021/06/25 11:41:58;;;;;;;2.13;1.30;;;26.70;47.10;;;;;;5094109;28;20418;-71
2021/06/25 11:44:28;;;;;;;4.90;2.00;;;26.50;47.60;;;;;;5096005;28;20444;-70
2021/06/25 11:47:01;;;;;;;2.07;1.00;;;26.40;48.40;;;;;;5094763;28;20533;-70
2021/06/25 11:49:36;;;;;;;2.50;1.40;;;26.40;50.00;;;;;;5113571;28;20434;-70
2021/06/25 11:52:07;;;;;;;2.00;1.27;;;26.40;50.80;;;;;;5115089;28;20614;-71
2021/06/25 11:54:45;;;;;;;1.90;1.07;;;26.50;49.40;;;;;;5112409;28;20873;-74
2021/06/25 11:57:21;;;;;;;2.60;1.33;;;26.70;49.80;;;;;;5087661;28;20446;-72
2021/06/25 11:59:59;;;;;;;2.80;1.70;;;26.80;48.30;;;;;;5084976;28;20430;-71
2021/06/25 12:02:26;;;;;;;2.77;1.50;;;26.80;49.40;;;;;;5114966;28;20912;-70
2021/06/25 12:04:54;;;;;;;2.10;1.30;;;26.90;48.60;;;;;;5114410;28;21027;-70
2021/06/25 12:07:23;;;;;;;3.13;2.03;;;26.90;49.30;;;;;;5114798;28;20438;-69
2021/06/25 12:09:51;;;;;;;2.90;2.43;;;27.00;49.10;;;;;;5115256;28;20521;-69
2021/06/25 12:12:27;;;;;;;2.10;1.37;;;27.00;48.70;;;;;;5115091;28;20481;-70
2021/06/25 12:14:56;;;;;;;2.50;1.67;;;27.00;49.50;;;;;;5114890;28;20517;-69
2021/06/25 12:17:24;;;;;;;3.63;1.77;;;26.90;49.90;;;;;;5114784;28;20529;-70
2021/06/25 12:20:00;;;;;;;2.43;1.53;;;26.80;48.80;;;;;;5114927;28;20433;-70
2021/06/25 12:22:28;;;;;;;2.00;1.10;;;26.80;48.50;;;;;;5114976;28;20470;-70
2021/06/25 12:24:57;;;;;;;2.63;1.53;;;26.80;49.40;;;;;;5114271;28;20477;-70
2021/06/25 12:27:38;;;;;;;3.13;1.43;;;26.80;49.90;;;;;;5114575;28;20484;-69
2021/06/25 12:30:10;;;;;;;2.20;1.33;;;26.80;49.00;;;;;;5114798;28;20790;-70
2021/06/25 12:32:37;;;;;;;3.80;1.57;;;26.80;48.50;;;;;;5114601;28;20862;-69
2021/06/25 12:35:04;;;;;;;3.40;1.50;;;26.80;48.40;;;;;;5114453;28;20517;-70
2021/06/25 12:37:53;;;;;;;2.70;1.60;;;26.80;47.70;;;;;;5114720;28;20466;-70
2021/06/25 12:40:48;;;;;;;2.30;1.43;;;26.70;48.20;;;;;;5114665;28;20920;-70
2021/06/25 12:43:18;;;;;;;2.50;1.33;;;26.70;48.30;;;;;;5114486;28;20473;-70
2021/06/25 12:45:48;;;;;;;2.47;1.20;;;26.70;48.30;;;;;;5114418;28;20994;-70
2021/06/25 12:48:19;;;;;;;2.20;1.37;;;26.70;48.10;;;;;;5114241;28;20444;-70
2021/06/25 12:50:47;;;;;;;2.43;1.57;;;26.70;48.10;;;;;;5114379;28;20438;-70
2021/06/25 12:53:19;;;;;;;1.97;1.47;;;26.70;48.90;;;;;;5114013;28;20521;-69
2021/06/25 12:55:47;;;;;;;3.53;1.67;;;26.80;48.80;;;;;;5114061;28;20441;-70
2021/06/25 12:58:19;;;;;;;2.07;1.20;;;26.90;49.40;;;;;;5114251;28;20438;-70
2021/06/25 13:00:51;;;;;;;2.30;1.60;;;26.90;49.10;;;;;;5114179;28;20491;-72
2021/06/25 13:03:18;;;;;;;2.13;1.30;;;27.00;49.20;;;;;;5114188;28;20473;-70
2021/06/25 13:05:45;;;;;;;1.97;1.33;;;27.10;48.20;;;;;;5113896;28;20528;-70
2021/06/25 13:08:18;;;;;;;2.43;1.67;;;27.20;47.20;;;;;;5113920;28;20469;-70
2021/06/25 13:10:45;;;;;;;1.80;1.00;;;27.10;48.00;;;;;;5113911;28;20434;-70
2021/06/25 13:13:21;;;;;;;1.90;1.10;;;27.00;46.60;;;;;;5114053;28;20430;-70